Terminal Aerodrome Forecast
Issued by NWS Albany, NY

Home | Current Version | Previous Version | Text Only | Print | Product List | Glossary On
Versions: 1 2 3 4 5 6 7 8 9 10 11 12 13 14
000
FTUS41 KALY 311700
TAFPOU
TAF
KPOU 311733Z 3118/0118 19010KT P6SM VCSH SCT050 BKN100
     FM312100 19008KT P6SM SCT050 SCT100
     FM010800 16003KT P6SM VCFG SCT250
     FM011200 20005KT P6SM SCT040=

USA.gov is the U.S. government's official web portal to all federal, state and local government web resources and services.